Time;durP1;ratioP1;P1;durP2;ratioP2;P2;SDS_P1;SDS_P2;PMS_P1;PMS_P2;Temp;Humidity;BMP_temperature;BMP_pressure;BME280_temperature;BME280_humidity;BME280_pressure;Samples;Min_cycle;Max_cycle;Signal;HPM_P1;HPM_P2
2023/02/16 00:01:46;;;;;;;50.67;45.47;;;4.80;99.90;;;;;;5014314;23;20578;-72
2023/02/16 00:04:19;;;;;;;54.37;48.60;;;4.70;99.90;;;;;;4980399;28;20504;-72
2023/02/16 00:06:52;;;;;;;55.23;48.40;;;4.70;99.90;;;;;;4994829;23;20488;-69
2023/02/16 00:09:23;;;;;;;52.50;46.87;;;4.70;99.90;;;;;;4997632;28;20451;-70
2023/02/16 00:14:42;;;;;;;57.53;48.87;;;4.60;99.90;;;;;;4978323;28;20952;-70
2023/02/16 00:17:12;;;;;;;52.93;46.00;;;4.60;99.90;;;;;;4977732;28;20441;-71
2023/02/16 00:19:42;;;;;;;55.90;48.10;;;4.60;99.90;;;;;;4995351;28;20470;-71
2023/02/16 00:22:11;;;;;;;53.60;47.77;;;4.50;99.90;;;;;;4977616;28;20473;-71
2023/02/16 00:24:39;;;;;;;54.93;49.03;;;4.50;99.90;;;;;;4995272;28;20799;-71
2023/02/16 00:27:15;;;;;;;60.83;49.00;;;4.50;99.90;;;;;;4977558;28;20487;-71
2023/02/16 00:29:43;;;;;;;57.73;50.30;;;4.50;99.90;;;;;;4977501;28;20474;-71
2023/02/16 00:32:14;;;;;;;55.57;49.87;;;4.50;99.90;;;;;;4977454;28;20452;-71
2023/02/16 00:34:44;;;;;;;55.50;49.00;;;4.40;99.90;;;;;;4977665;28;20441;-71
2023/02/16 00:37:13;;;;;;;55.17;49.17;;;4.40;99.90;;;;;;4994877;28;20444;-71
2023/02/16 00:39:43;;;;;;;53.83;48.03;;;4.40;99.90;;;;;;4994991;28;20502;-71
2023/02/16 00:42:18;;;;;;;52.20;46.53;;;4.40;99.90;;;;;;4995130;28;20829;-71
2023/02/16 00:44:49;;;;;;;54.00;47.47;;;4.40;99.90;;;;;;4995003;28;20424;-71
2023/02/16 00:47:21;;;;;;;58.27;48.53;;;4.40;99.90;;;;;;4977284;28;20534;-71
2023/02/16 00:49:51;;;;;;;53.63;47.93;;;4.40;99.90;;;;;;4977314;28;20526;-71
2023/02/16 00:52:33;;;;;;;56.60;49.57;;;4.40;99.90;;;;;;4977358;28;20922;-71
2023/02/16 00:55:03;;;;;;;55.70;48.03;;;4.40;99.90;;;;;;4977085;28;20440;-71
2023/02/16 00:57:36;;;;;;;54.83;47.83;;;4.40;99.90;;;;;;4977024;28;20886;-71
2023/02/16 01:00:08;;;;;;;57.20;50.13;;;4.40;99.90;;;;;;4976978;28;20472;-71
2023/02/16 01:02:38;;;;;;;57.53;48.83;;;4.40;99.90;;;;;;4994571;28;20869;-71
2023/02/16 01:05:07;;;;;;;54.40;48.20;;;4.40;99.90;;;;;;4976884;28;20536;-71
2023/02/16 01:13:07;;;;;;;55.07;48.43;;;4.40;99.90;;;;;;4976829;28;20449;-71
2023/02/16 01:15:36;;;;;;;53.87;46.37;;;4.40;99.90;;;;;;4976394;28;20820;-71
2023/02/16 01:18:06;;;;;;;52.37;46.33;;;4.40;99.90;;;;;;4976650;28;20963;-71
2023/02/16 01:20:35;;;;;;;51.40;45.80;;;4.50;99.90;;;;;;4994167;28;20464;-71
2023/02/16 01:23:04;;;;;;;54.83;48.57;;;4.50;99.90;;;;;;4994139;28;20474;-71
2023/02/16 01:25:33;;;;;;;53.13;47.33;;;4.50;99.90;;;;;;4976554;28;20963;-71
2023/02/16 01:28:01;;;;;;;54.07;46.97;;;4.50;99.90;;;;;;4993979;28;20444;-71
2023/02/16 01:30:29;;;;;;;55.83;49.60;;;4.50;99.90;;;;;;4976471;28;20457;-71
2023/02/16 01:32:57;;;;;;;52.90;47.40;;;4.50;99.90;;;;;;4976746;28;20449;-71
2023/02/16 01:35:33;;;;;;;53.80;47.57;;;4.50;99.90;;;;;;4993921;28;20487;-71
2023/02/16 01:38:01;;;;;;;52.20;46.40;;;4.50;99.90;;;;;;4993927;28;20420;-71
2023/02/16 01:40:38;;;;;;;51.10;45.37;;;4.50;99.90;;;;;;4993824;28;20452;-71
2023/02/16 01:43:18;;;;;;;51.53;46.03;;;4.50;99.90;;;;;;4976425;28;20504;-71
2023/02/16 01:45:55;;;;;;;53.27;46.50;;;4.40;99.90;;;;;;4994109;28;20420;-71
2023/02/16 01:48:28;;;;;;;54.77;47.20;;;4.40;99.90;;;;;;4976371;28;20472;-71
2023/02/16 01:51:04;;;;;;;52.53;45.87;;;4.40;99.90;;;;;;4994563;28;20803;-71
2023/02/16 01:53:36;;;;;;;52.30;46.60;;;4.40;99.90;;;;;;4994578;28;20421;-71
2023/02/16 01:56:13;;;;;;;52.73;44.83;;;4.30;99.90;;;;;;4976313;28;20437;-71
2023/02/16 01:58:47;;;;;;;54.10;48.50;;;4.30;99.90;;;;;;4994212;28;20817;-71
2023/02/16 02:07:40;;;;;;;56.07;46.87;;;4.30;99.90;;;;;;4994344;28;20448;-72
2023/02/16 02:10:15;;;;;;;57.73;49.10;;;4.20;99.90;;;;;;4976177;28;20507;-71
2023/02/16 02:12:51;;;;;;;55.60;48.23;;;4.20;99.90;;;;;;4976381;28;20440;-72
2023/02/16 02:15:24;;;;;;;53.93;47.50;;;4.20;99.90;;;;;;4976191;28;20440;-71
2023/02/16 02:17:53;;;;;;;52.87;47.17;;;4.20;99.90;;;;;;4976353;28;20444;-73
2023/02/16 02:23:29;;;;;;;54.17;48.27;;;4.20;99.90;;;;;;4976328;28;20475;-71
2023/02/16 02:23:46;;;;;;;52.07;46.37;;;4.20;99.90;;;;;;4976627;28;20472;-71
2023/02/16 02:26:48;;;;;;;52.37;46.00;;;4.20;99.90;;;;;;4991614;28;20464;-72
2023/02/16 02:29:40;;;;;;;54.10;45.40;;;4.10;99.90;;;;;;4996932;28;20471;-72
2023/02/16 02:32:21;;;;;;;52.43;46.73;;;4.10;99.90;;;;;;4980452;28;20455;-72
2023/02/16 02:35:08;;;;;;;51.93;46.37;;;4.10;99.90;;;;;;4997895;28;20507;-71
2023/02/16 02:37:49;;;;;;;52.37;45.07;;;4.00;99.90;;;;;;4980022;28;20440;-71
2023/02/16 02:40:29;;;;;;;53.83;46.33;;;4.00;99.90;;;;;;4980051;28;20851;-71
2023/02/16 02:43:08;;;;;;;55.60;45.80;;;4.00;99.90;;;;;;4997753;28;20463;-71
2023/02/16 02:45:40;;;;;;;52.50;47.00;;;3.90;99.90;;;;;;4979871;28;20458;-72
2023/02/16 02:48:09;;;;;;;54.77;48.57;;;3.90;99.90;;;;;;4979893;28;20507;-72
2023/02/16 02:51:27;;;;;;;56.40;50.27;;;3.90;99.90;;;;;;4979850;28;20460;-71
2023/02/16 02:53:38;;;;;;;53.07;46.83;;;3.90;99.90;;;;;;4979405;28;20461;-72
2023/02/16 03:01:50;;;;;;;52.50;47.00;;;3.80;99.90;;;;;;4979203;28;20923;-72
2023/02/16 03:04:24;;;;;;;55.33;49.37;;;3.80;99.90;;;;;;4996997;28;20456;-71
2023/02/16 03:06:56;;;;;;;51.90;45.37;;;3.80;99.90;;;;;;4979132;28;20913;-70
2023/02/16 03:09:24;;;;;;;57.40;47.43;;;3.70;99.90;;;;;;4979019;28;20449;-72
2023/02/16 03:14:44;;;;;;;51.13;45.70;;;3.60;99.90;;;;;;4996734;28;20498;-71
2023/02/16 03:31:18;;;;;;;53.13;47.33;;;3.60;99.90;;;;;;4996058;28;20540;-71
2023/02/16 03:33:53;;;;;;;56.07;47.53;;;3.50;99.90;;;;;;4996376;28;20421;-71
2023/02/16 03:36:21;;;;;;;52.73;46.63;;;3.50;99.90;;;;;;4996038;28;20453;-71
2023/02/16 03:38:50;;;;;;;52.53;45.60;;;3.50;99.90;;;;;;4995727;28;20885;-71
2023/02/16 03:41:18;;;;;;;52.57;45.90;;;3.50;99.90;;;;;;4978641;28;20492;-71
2023/02/16 03:43:47;;;;;;;52.07;46.50;;;3.50;99.90;;;;;;4995843;28;20478;-71
2023/02/16 03:46:16;;;;;;;58.23;47.77;;;3.50;99.90;;;;;;4978298;28;20986;-71
2023/02/16 03:48:44;;;;;;;52.50;46.80;;;3.50;99.90;;;;;;4995913;28;20815;-71
2023/02/16 03:51:13;;;;;;;56.70;47.17;;;3.40;99.90;;;;;;4978246;28;20488;-71
2023/02/16 03:53:41;;;;;;;54.57;48.10;;;3.40;99.90;;;;;;4995697;28;20523;-71
2023/02/16 03:56:09;;;;;;;57.43;49.13;;;3.40;99.90;;;;;;4995910;28;20440;-71
2023/02/16 03:58:37;;;;;;;56.40;48.43;;;3.40;99.90;;;;;;4996111;28;20452;-71
2023/02/16 04:01:05;;;;;;;55.97;48.80;;;3.40;99.90;;;;;;4978030;28;20842;-71
2023/02/16 04:03:35;;;;;;;52.73;47.13;;;3.40;99.90;;;;;;4995448;28;20526;-71
2023/02/16 04:06:03;;;;;;;56.20;50.20;;;3.40;99.90;;;;;;4995528;28;20444;-71
2023/02/16 04:08:31;;;;;;;55.40;46.57;;;3.50;99.90;;;;;;4977992;28;20580;-71
2023/02/16 04:10:59;;;;;;;65.47;54.63;;;3.40;99.90;;;;;;4995358;28;20510;-71
2023/02/16 04:13:27;;;;;;;63.80;55.80;;;3.40;99.90;;;;;;4995300;28;20444;-71
2023/02/16 04:15:55;;;;;;;61.47;53.53;;;3.40;99.90;;;;;;4977854;28;20477;-71
2023/02/16 04:18:23;;;;;;;59.17;50.50;;;3.50;99.90;;;;;;4977731;28;20449;-71
2023/02/16 04:20:53;;;;;;;54.50;48.50;;;3.40;99.90;;;;;;4995316;28;20456;-71
2023/02/16 04:23:21;;;;;;;57.47;50.70;;;3.40;99.90;;;;;;4995015;28;20472;-71
2023/02/16 04:25:49;;;;;;;58.10;50.43;;;3.40;99.90;;;;;;4977652;28;20864;-71
2023/02/16 04:28:17;;;;;;;55.90;49.33;;;3.40;99.90;;;;;;4995311;28;20444;-71
2023/02/16 04:30:45;;;;;;;55.33;49.33;;;3.40;99.90;;;;;;4977540;28;20482;-71
2023/02/16 04:33:13;;;;;;;53.93;47.70;;;3.40;99.90;;;;;;4994961;28;20532;-71
2023/02/16 04:35:42;;;;;;;52.20;46.70;;;3.40;99.90;;;;;;4994920;28;20439;-71
2023/02/16 04:38:11;;;;;;;53.60;46.73;;;3.40;99.90;;;;;;4994815;28;20448;-71
2023/02/16 04:40:39;;;;;;;54.53;48.60;;;3.40;99.90;;;;;;4977272;28;20511;-71
2023/02/16 04:43:07;;;;;;;59.20;51.53;;;3.30;99.90;;;;;;4994743;28;20444;-71
2023/02/16 04:45:35;;;;;;;57.90;50.80;;;3.40;99.90;;;;;;4994681;28;20445;-71
2023/02/16 04:48:04;;;;;;;58.77;50.33;;;3.40;99.90;;;;;;4994640;28;20444;-71
2023/02/16 04:50:32;;;;;;;59.07;49.40;;;3.40;99.90;;;;;;4976486;28;20991;-71
2023/02/16 04:53:00;;;;;;;56.10;50.20;;;3.30;99.90;;;;;;4995161;28;20479;-71
2023/02/16 04:55:30;;;;;;;52.27;46.67;;;3.30;99.90;;;;;;4994663;28;20441;-71
2023/02/16 04:57:58;;;;;;;61.47;50.13;;;3.30;99.90;;;;;;4994714;28;20444;-71
2023/02/16 05:00:26;;;;;;;58.90;51.40;;;3.30;99.90;;;;;;4976997;28;20455;-71
2023/02/16 05:02:54;;;;;;;57.37;49.77;;;3.30;99.90;;;;;;4994570;28;20794;-71
2023/02/16 05:05:22;;;;;;;54.70;46.43;;;3.30;99.90;;;;;;4976689;28;20471;-71
2023/02/16 05:07:50;;;;;;;49.50;39.57;;;3.30;99.90;;;;;;4976994;28;20528;-71
2023/02/16 05:10:19;;;;;;;57.30;50.17;;;3.30;99.90;;;;;;4994244;28;20469;-71
2023/02/16 05:15:34;;;;;;;58.30;52.00;;;3.20;99.90;;;;;;4994794;28;20764;-72
2023/02/16 05:18:02;;;;;;;57.57;49.87;;;3.20;99.90;;;;;;4994172;28;20804;-71
2023/02/16 05:23:12;;;;;;;63.90;51.80;;;3.20;99.90;;;;;;4975835;28;20447;-71
2023/02/16 05:25:41;;;;;;;58.50;49.20;;;3.20;99.90;;;;;;4976575;28;20499;-70
2023/02/16 05:28:10;;;;;;;59.63;49.80;;;3.20;99.90;;;;;;4994279;28;20536;-70
2023/02/16 05:30:38;;;;;;;60.80;51.00;;;3.20;99.90;;;;;;4976583;28;20874;-70
2023/02/16 05:33:07;;;;;;;59.57;51.33;;;3.20;99.90;;;;;;4976553;28;20473;-71
2023/02/16 05:35:35;;;;;;;62.73;52.73;;;3.20;99.90;;;;;;4976546;28;20847;-70
2023/02/16 05:38:03;;;;;;;65.03;55.97;;;3.20;99.90;;;;;;4976489;28;20494;-70
2023/02/16 05:40:31;;;;;;;66.83;57.03;;;3.20;99.90;;;;;;4993894;28;20516;-70
2023/02/16 05:42:59;;;;;;;65.90;54.30;;;3.20;99.90;;;;;;4994406;28;20444;-70
2023/02/16 05:45:29;;;;;;;62.60;54.07;;;3.30;99.90;;;;;;4976325;28;20978;-71
2023/02/16 05:47:57;;;;;;;61.30;54.60;;;3.30;99.90;;;;;;4994246;28;20438;-70
2023/02/16 05:50:25;;;;;;;67.53;57.50;;;3.30;99.90;;;;;;4993793;28;20464;-71
2023/02/16 05:52:53;;;;;;;64.67;57.27;;;3.30;99.90;;;;;;4993793;28;20449;-71
2023/02/16 05:55:21;;;;;;;63.53;55.90;;;3.40;99.90;;;;;;4976332;28;20471;-71
2023/02/16 05:57:50;;;;;;;64.30;56.57;;;3.40;99.90;;;;;;4976270;28;20449;-71
2023/02/16 06:00:20;;;;;;;61.93;55.17;;;3.50;99.90;;;;;;4976925;28;20479;-70
2023/02/16 06:02:50;;;;;;;61.93;54.67;;;3.50;99.90;;;;;;4996406;28;20447;-71
2023/02/16 06:05:19;;;;;;;62.67;55.37;;;3.50;99.90;;;;;;4980025;28;20475;-71
2023/02/16 06:07:47;;;;;;;63.83;55.10;;;3.60;99.90;;;;;;4997738;28;20428;-71
2023/02/16 06:10:15;;;;;;;65.23;58.13;;;3.60;99.90;;;;;;4997794;28;21072;-71
2023/02/16 06:12:43;;;;;;;62.77;56.03;;;3.60;99.90;;;;;;4980074;28;20503;-70
2023/02/16 06:15:12;;;;;;;66.73;59.53;;;3.70;99.90;;;;;;4997543;28;20982;-70
2023/02/16 06:17:40;;;;;;;63.90;57.00;;;3.70;99.90;;;;;;4997415;28;20441;-71
2023/02/16 06:20:11;;;;;;;65.00;57.90;;;3.80;99.90;;;;;;4979948;28;20494;-70
2023/02/16 06:22:39;;;;;;;65.93;57.30;;;3.80;99.90;;;;;;4997996;28;20504;-70
2023/02/16 06:25:07;;;;;;;62.80;55.20;;;3.80;99.90;;;;;;4997367;28;20472;-71
2023/02/16 06:27:36;;;;;;;63.30;56.40;;;3.90;99.90;;;;;;4997290;28;20440;-71
2023/02/16 06:30:05;;;;;;;64.17;57.23;;;3.90;99.90;;;;;;4997303;28;20467;-71
2023/02/16 06:32:33;;;;;;;74.67;57.20;;;3.90;99.90;;;;;;4997207;28;20990;-71
2023/02/16 06:35:01;;;;;;;65.30;56.47;;;4.00;99.90;;;;;;4997197;28;20935;-71
2023/02/16 06:37:31;;;;;;;60.40;54.20;;;4.00;99.90;;;;;;4997163;28;20439;-71
2023/02/16 06:39:59;;;;;;;60.70;54.40;;;4.00;99.90;;;;;;4979528;28;20526;-71
2023/02/16 06:42:27;;;;;;;63.30;56.40;;;4.10;99.90;;;;;;4979528;28;20527;-71
2023/02/16 06:44:55;;;;;;;61.50;54.73;;;4.10;99.90;;;;;;4979499;28;20841;-71
2023/02/16 06:47:23;;;;;;;61.87;55.23;;;4.10;99.90;;;;;;4996970;28;20450;-71
2023/02/16 06:49:51;;;;;;;58.40;52.00;;;4.20;99.90;;;;;;4996846;28;20471;-71
2023/02/16 06:52:20;;;;;;;62.10;55.83;;;4.20;99.90;;;;;;4997070;28;20927;-71
2023/02/16 06:54:49;;;;;;;63.60;55.67;;;4.20;99.90;;;;;;4996668;28;20439;-71
2023/02/16 06:57:17;;;;;;;60.30;54.33;;;4.30;99.90;;;;;;4979310;28;20448;-71
2023/02/16 06:59:45;;;;;;;62.17;55.10;;;4.30;99.90;;;;;;4996875;28;20472;-71
2023/02/16 07:02:13;;;;;;;59.30;53.00;;;4.40;99.90;;;;;;4996615;28;20488;-71
2023/02/16 07:04:42;;;;;;;60.30;53.90;;;4.40;99.90;;;;;;4979150;28;20472;-72
2023/02/16 07:07:10;;;;;;;60.10;53.80;;;4.40;99.90;;;;;;4996440;28;20451;-71
2023/02/16 07:09:38;;;;;;;57.70;51.83;;;4.50;99.90;;;;;;4996582;28;20496;-71
2023/02/16 07:12:08;;;;;;;60.83;54.23;;;4.50;99.90;;;;;;4978981;28;20951;-71
2023/02/16 07:14:36;;;;;;;63.23;56.83;;;4.50;99.90;;;;;;4995885;28;20859;-71
2023/02/16 07:17:04;;;;;;;60.40;53.90;;;4.60;99.90;;;;;;4978894;28;20448;-71
2023/02/16 07:19:32;;;;;;;57.87;51.77;;;4.60;99.90;;;;;;4996344;28;20468;-71
2023/02/16 07:22:01;;;;;;;62.20;55.83;;;4.60;99.90;;;;;;4996897;28;20444;-71
2023/02/16 07:24:29;;;;;;;59.87;53.67;;;4.60;99.90;;;;;;4996202;28;20440;-71
2023/02/16 07:26:57;;;;;;;59.20;53.13;;;4.70;99.90;;;;;;4979022;28;20818;-71
2023/02/16 07:29:27;;;;;;;58.50;52.30;;;4.70;99.90;;;;;;4996416;28;20447;-71
2023/02/16 07:31:56;;;;;;;58.43;52.40;;;4.70;99.90;;;;;;4996379;28;20440;-71
2023/02/16 07:34:24;;;;;;;59.57;53.47;;;4.70;99.90;;;;;;4978683;28;20462;-71
2023/02/16 07:36:53;;;;;;;61.13;54.57;;;4.80;99.90;;;;;;4996091;28;20780;-71
2023/02/16 07:39:21;;;;;;;59.77;53.40;;;4.80;99.90;;;;;;4978462;28;20507;-71
2023/02/16 07:41:49;;;;;;;58.93;53.13;;;4.80;99.90;;;;;;4978399;28;20445;-71
2023/02/16 07:44:18;;;;;;;60.70;54.40;;;4.80;99.90;;;;;;4978586;28;20845;-71
2023/02/16 07:46:48;;;;;;;61.67;55.60;;;4.90;99.90;;;;;;4996307;28;20506;-71
2023/02/16 07:49:16;;;;;;;61.00;54.40;;;4.90;99.90;;;;;;4995697;28;20436;-71
2023/02/16 07:51:44;;;;;;;60.77;54.57;;;5.00;99.90;;;;;;4995741;28;20523;-71
2023/02/16 07:54:12;;;;;;;60.63;54.63;;;5.00;99.90;;;;;;4995658;28;20444;-71
2023/02/16 07:56:40;;;;;;;61.50;55.13;;;5.00;99.90;;;;;;4995661;28;20849;-71
2023/02/16 07:59:08;;;;;;;60.73;54.93;;;5.00;99.90;;;;;;4978103;28;21034;-71
2023/02/16 08:01:38;;;;;;;58.50;52.30;;;5.10;99.90;;;;;;4995582;28;20441;-71
2023/02/16 08:04:08;;;;;;;60.97;54.90;;;5.10;99.90;;;;;;4996341;28;20421;-71
2023/02/16 08:06:36;;;;;;;59.07;52.90;;;5.10;99.90;;;;;;4995243;28;20480;-71
2023/02/16 08:09:05;;;;;;;59.70;54.00;;;5.20;99.90;;;;;;4995381;28;20443;-71
2023/02/16 08:11:33;;;;;;;59.77;53.97;;;5.20;99.90;;;;;;4995322;28;20461;-71
2023/02/16 08:14:01;;;;;;;60.73;54.93;;;5.20;99.90;;;;;;4995292;28;20439;-71
2023/02/16 08:16:30;;;;;;;59.30;53.50;;;5.30;99.90;;;;;;4977865;28;20445;-71
2023/02/16 08:18:59;;;;;;;60.60;54.63;;;5.30;99.90;;;;;;4977751;28;20441;-71
2023/02/16 08:21:32;;;;;;;60.10;54.30;;;5.40;99.90;;;;;;4995073;28;20456;-71
2023/02/16 08:24:02;;;;;;;59.57;53.63;;;5.40;99.90;;;;;;4995723;28;20810;-71
2023/02/16 08:26:36;;;;;;;57.20;51.80;;;5.40;99.90;;;;;;4994094;28;20486;-71
2023/02/16 08:29:05;;;;;;;62.47;56.23;;;5.50;99.90;;;;;;4995373;28;20421;-71
2023/02/16 08:31:36;;;;;;;57.43;51.67;;;5.50;99.90;;;;;;4977446;28;20975;-71
2023/02/16 08:34:06;;;;;;;59.03;53.30;;;5.50;99.90;;;;;;4995398;28;20428;-71
2023/02/16 08:36:37;;;;;;;60.57;54.67;;;5.60;99.90;;;;;;4994945;28;20440;-71
2023/02/16 08:39:07;;;;;;;58.27;52.40;;;5.60;99.90;;;;;;4994889;28;20421;-71
2023/02/16 08:41:36;;;;;;;62.23;56.03;;;5.60;99.90;;;;;;4977326;28;20465;-71
2023/02/16 08:44:06;;;;;;;58.27;52.37;;;5.70;99.90;;;;;;4977343;28;20859;-71
2023/02/16 08:46:36;;;;;;;59.23;53.33;;;5.70;99.90;;;;;;4994771;28;20465;-71
2023/02/16 08:49:04;;;;;;;58.07;52.30;;;5.80;99.90;;;;;;4977197;28;20455;-71
2023/02/16 08:51:34;;;;;;;58.93;53.03;;;5.80;99.90;;;;;;4977984;28;20461;-71
2023/02/16 08:54:06;;;;;;;57.30;51.70;;;5.80;99.90;;;;;;4977128;28;20437;-71
2023/02/16 08:56:35;;;;;;;58.43;52.90;;;5.90;99.90;;;;;;4977166;28;20447;-71
2023/02/16 08:59:04;;;;;;;56.93;51.57;;;5.90;99.90;;;;;;4977346;28;20781;-71
2023/02/16 09:01:32;;;;;;;58.90;53.17;;;6.00;99.90;;;;;;4994367;28;20466;-71
2023/02/16 09:04:00;;;;;;;58.43;52.63;;;6.00;99.90;;;;;;4994738;28;20442;-71
2023/02/16 09:06:28;;;;;;;62.20;55.90;;;6.00;99.90;;;;;;4976791;28;20492;-71
2023/02/16 09:08:57;;;;;;;56.37;51.07;;;6.00;99.90;;;;;;4994802;28;20437;-71
2023/02/16 09:11:26;;;;;;;58.00;52.20;;;6.10;99.90;;;;;;4994313;28;20869;-71
2023/02/16 09:13:55;;;;;;;59.47;53.67;;;6.20;99.90;;;;;;4976758;28;20495;-71
2023/02/16 09:16:23;;;;;;;56.77;51.23;;;6.20;99.90;;;;;;4994229;28;20551;-71
2023/02/16 09:18:53;;;;;;;60.60;54.70;;;6.20;99.90;;;;;;4994261;28;20576;-71
2023/02/16 09:21:24;;;;;;;58.83;53.20;;;6.30;99.90;;;;;;4994338;28;20476;-71
2023/02/16 09:23:56;;;;;;;59.77;53.97;;;6.30;99.90;;;;;;4976737;28;20449;-71
2023/02/16 09:26:28;;;;;;;59.60;53.73;;;6.40;99.90;;;;;;4976624;28;20467;-71
2023/02/16 09:28:56;;;;;;;58.90;53.23;;;6.50;99.90;;;;;;4976574;28;20439;-71
2023/02/16 09:31:29;;;;;;;54.60;49.43;;;6.50;99.90;;;;;;4976786;28;20562;-71
2023/02/16 09:34:01;;;;;;;57.17;51.60;;;6.60;99.90;;;;;;4994009;28;20924;-71
2023/02/16 09:36:30;;;;;;;55.80;50.20;;;6.70;99.90;;;;;;4994343;28;20427;-71
2023/02/16 09:38:59;;;;;;;56.33;50.80;;;6.70;99.90;;;;;;4993980;28;20445;-71
2023/02/16 09:41:36;;;;;;;56.77;51.33;;;6.80;99.90;;;;;;4993848;28;20467;-71
2023/02/16 09:44:14;;;;;;;56.97;51.27;;;6.90;99.90;;;;;;4993917;28;20421;-71
2023/02/16 09:46:43;;;;;;;55.60;50.30;;;6.90;99.90;;;;;;4993802;28;20825;-71
2023/02/16 09:49:21;;;;;;;56.20;50.90;;;7.00;99.90;;;;;;4994352;28;20465;-71
2023/02/16 09:51:53;;;;;;;55.17;49.87;;;7.00;99.90;;;;;;4994127;28;20919;-71
2023/02/16 09:54:38;;;;;;;55.50;50.03;;;7.10;99.90;;;;;;4976287;28;20441;-71
2023/02/16 09:57:18;;;;;;;58.00;52.30;;;7.20;99.90;;;;;;4976333;28;20884;-71
2023/02/16 09:59:52;;;;;;;57.27;51.07;;;7.30;99.90;;;;;;4993666;28;20556;-71
2023/02/16 10:02:44;;;;;;;53.63;48.40;;;7.40;99.90;;;;;;4994001;28;20429;-71
2023/02/16 10:05:21;;;;;;;53.40;48.10;;;7.60;99.90;;;;;;4993600;28;20508;-72
2023/02/16 10:07:57;;;;;;;54.03;48.87;;;7.60;99.90;;;;;;4993886;28;20487;-71
2023/02/16 10:10:31;;;;;;;52.67;47.70;;;7.70;99.90;;;;;;4993920;28;20460;-71
2023/02/16 10:13:04;;;;;;;53.10;47.90;;;7.80;99.90;;;;;;4976356;28;20470;-71
2023/02/16 10:15:38;;;;;;;52.20;47.17;;;7.90;99.90;;;;;;4976243;28;20539;-71
2023/02/16 10:18:16;;;;;;;53.40;48.40;;;7.90;99.90;;;;;;4994350;28;20774;-71
2023/02/16 10:20:48;;;;;;;54.10;49.00;;;8.00;99.90;;;;;;4993679;28;20460;-71
2023/02/16 10:23:32;;;;;;;53.47;48.30;;;8.00;99.90;;;;;;4993892;28;20464;-71
2023/02/16 10:26:06;;;;;;;53.63;48.53;;;8.00;99.90;;;;;;4993744;28;20805;-71
2023/02/16 10:28:42;;;;;;;53.13;47.70;;;8.10;99.90;;;;;;4976144;28;20448;-71
2023/02/16 10:31:17;;;;;;;53.73;48.60;;;8.10;99.90;;;;;;4993711;28;20463;-71
2023/02/16 10:33:53;;;;;;;55.00;49.53;;;8.20;99.90;;;;;;4993705;28;20432;-71
2023/02/16 10:36:29;;;;;;;53.20;47.90;;;8.10;99.90;;;;;;4993988;28;20861;-71
2023/02/16 10:39:02;;;;;;;51.27;46.37;;;8.20;99.90;;;;;;4993718;28;20419;-71
2023/02/16 10:41:35;;;;;;;52.03;47.03;;;8.20;99.90;;;;;;4993620;28;20558;-71
2023/02/16 10:44:11;;;;;;;51.83;47.03;;;8.30;99.90;;;;;;4993663;28;20504;-71
2023/02/16 10:46:43;;;;;;;53.57;47.70;;;8.30;99.90;;;;;;4993553;28;20962;-71
2023/02/16 10:49:13;;;;;;;52.07;46.93;;;8.30;99.90;;;;;;4994870;28;20420;-71
2023/02/16 10:51:47;;;;;;;53.33;48.13;;;8.40;99.90;;;;;;4997061;28;20540;-71
2023/02/16 10:54:22;;;;;;;53.33;48.43;;;8.40;99.90;;;;;;4996903;28;20428;-71
2023/02/16 10:56:56;;;;;;;54.47;49.20;;;8.40;99.90;;;;;;4997143;28;20510;-71
2023/02/16 10:59:31;;;;;;;53.87;48.37;;;8.40;99.90;;;;;;4996999;28;20551;-71
2023/02/16 11:02:01;;;;;;;52.27;47.10;;;8.40;99.90;;;;;;4997016;28;20896;-71
2023/02/16 11:04:37;;;;;;;54.97;49.60;;;8.50;99.90;;;;;;4979173;28;20504;-71
2023/02/16 11:07:10;;;;;;;53.53;48.07;;;8.50;99.90;;;;;;4996543;28;20982;-71
2023/02/16 11:09:40;;;;;;;54.63;49.03;;;8.50;99.90;;;;;;4979487;28;20789;-71
2023/02/16 11:12:18;;;;;;;54.90;49.50;;;8.60;99.90;;;;;;4996630;28;20526;-71
2023/02/16 11:14:58;;;;;;;53.80;48.80;;;8.60;99.90;;;;;;4979051;28;20437;-72
2023/02/16 11:17:27;;;;;;;56.00;50.50;;;8.60;99.90;;;;;;4996464;28;20425;-71
2023/02/16 11:19:58;;;;;;;51.97;46.90;;;8.60;99.90;;;;;;4996376;28;20464;-71
2023/02/16 11:22:35;;;;;;;55.07;49.43;;;8.70;99.90;;;;;;4996670;28;20951;-71
2023/02/16 11:25:20;;;;;;;55.77;50.10;;;8.70;99.90;;;;;;4996392;28;20927;-71
2023/02/16 11:27:54;;;;;;;53.13;48.00;;;8.80;99.90;;;;;;4996298;28;20492;-72
2023/02/16 11:30:31;;;;;;;54.47;49.47;;;8.80;99.90;;;;;;4978631;28;20989;-72
2023/02/16 11:33:02;;;;;;;54.20;48.60;;;8.90;99.90;;;;;;4996659;28;20479;-71
2023/02/16 11:35:32;;;;;;;54.97;49.27;;;8.90;99.90;;;;;;4996107;28;20454;-71
2023/02/16 11:38:00;;;;;;;54.70;49.30;;;9.00;99.90;;;;;;4978615;28;20464;-72
2023/02/16 11:40:31;;;;;;;53.20;48.10;;;9.10;99.90;;;;;;4978385;28;20539;-71
2023/02/16 11:43:01;;;;;;;53.93;48.77;;;9.10;99.90;;;;;;4996119;28;20440;-72
2023/02/16 11:45:33;;;;;;;55.40;49.80;;;9.10;99.90;;;;;;4996231;28;20455;-71
2023/02/16 11:48:06;;;;;;;52.00;47.00;;;9.20;99.90;;;;;;4996361;28;20456;-71
2023/02/16 11:50:37;;;;;;;52.97;47.97;;;9.20;99.90;;;;;;4995958;28;20543;-71
2023/02/16 11:53:15;;;;;;;53.10;47.80;;;9.20;99.90;;;;;;4978255;28;20457;-71
2023/02/16 11:55:46;;;;;;;53.60;48.17;;;9.30;99.90;;;;;;4978203;28;20444;-71
2023/02/16 11:58:17;;;;;;;56.43;50.57;;;9.30;99.90;;;;;;4996248;28;20421;-71
2023/02/16 12:01:00;;;;;;;55.17;49.83;;;9.30;99.90;;;;;;4995651;28;20460;-71
2023/02/16 12:03:51;;;;;;;54.23;48.83;;;9.30;99.90;;;;;;4978128;28;20447;-71
2023/02/16 12:06:36;;;;;;;55.30;49.70;;;9.30;99.90;;;;;;4995612;28;21017;-71
2023/02/16 12:09:17;;;;;;;55.33;50.03;;;9.30;99.90;;;;;;4977961;28;20469;-71
2023/02/16 12:11:54;;;;;;;58.90;52.63;;;9.30;99.90;;;;;;4995946;28;20432;-71
2023/02/16 12:14:33;;;;;;;57.10;51.57;;;9.30;99.90;;;;;;4977909;28;20890;-71
2023/02/16 12:17:18;;;;;;;56.07;50.57;;;9.30;99.90;;;;;;4995297;28;20930;-71
2023/02/16 12:19:52;;;;;;;58.03;52.03;;;9.40;99.90;;;;;;4995104;28;20460;-71
2023/02/16 12:22:29;;;;;;;57.57;51.27;;;9.40;99.90;;;;;;4995261;28;20417;-71
2023/02/16 12:25:12;;;;;;;57.93;52.10;;;9.30;99.90;;;;;;4977594;28;20479;-71
2023/02/16 12:27:49;;;;;;;54.87;49.40;;;9.40;99.90;;;;;;4995351;28;20467;-71
2023/02/16 12:30:32;;;;;;;59.20;53.07;;;9.40;99.90;;;;;;4995383;28;20483;-71
2023/02/16 12:33:16;;;;;;;57.80;51.60;;;9.30;99.90;;;;;;4977594;28;20541;-71
2023/02/16 12:35:59;;;;;;;57.70;51.87;;;9.30;99.90;;;;;;4995548;28;20428;-71
2023/02/16 12:38:40;;;;;;;55.47;49.90;;;9.30;99.90;;;;;;4995500;28;20421;-71
2023/02/16 12:41:21;;;;;;;56.67;51.10;;;9.30;99.90;;;;;;4994838;28;20821;-71
2023/02/16 12:43:52;;;;;;;56.70;50.97;;;9.30;99.90;;;;;;4995312;28;20421;-71
2023/02/16 12:46:27;;;;;;;57.30;51.43;;;9.30;99.90;;;;;;4996127;28;20429;-71
2023/02/16 12:49:00;;;;;;;57.47;51.50;;;9.30;99.90;;;;;;4994639;28;20505;-71
2023/02/16 12:51:34;;;;;;;59.30;53.50;;;9.30;99.90;;;;;;4994682;28;20480;-71
2023/02/16 12:54:09;;;;;;;60.40;54.20;;;9.30;99.90;;;;;;4995221;28;20431;-71
2023/02/16 12:56:41;;;;;;;58.60;52.67;;;9.30;99.90;;;;;;4994934;28;20421;-71
2023/02/16 12:59:20;;;;;;;61.97;55.77;;;9.30;99.90;;;;;;4994509;28;20440;-71
2023/02/16 13:01:51;;;;;;;62.80;56.40;;;9.30;99.90;;;;;;4977084;28;20491;-71
2023/02/16 13:04:27;;;;;;;57.37;51.80;;;9.30;99.90;;;;;;4976855;28;20936;-71
2023/02/16 13:07:02;;;;;;;58.60;52.40;;;9.40;99.90;;;;;;4976685;28;20453;-71
2023/02/16 13:09:37;;;;;;;59.57;53.60;;;9.40;99.90;;;;;;4994409;28;21052;-71
2023/02/16 13:12:12;;;;;;;61.97;55.57;;;9.40;99.90;;;;;;4994143;28;20428;-71
2023/02/16 13:14:43;;;;;;;59.07;53.23;;;9.40;99.90;;;;;;4994212;28;20435;-71
2023/02/16 13:17:15;;;;;;;58.10;52.10;;;9.50;99.90;;;;;;4994579;28;20471;-71
2023/02/16 13:19:47;;;;;;;60.50;54.40;;;9.50;99.90;;;;;;4994423;28;20971;-71
2023/02/16 13:22:43;;;;;;;61.70;55.10;;;9.40;99.90;;;;;;4994424;28;20919;-71
2023/02/16 13:25:44;;;;;;;60.80;54.90;;;9.50;99.90;;;;;;4994079;28;20527;-71
2023/02/16 13:28:37;;;;;;;60.83;54.47;;;9.40;99.90;;;;;;4994293;28;20799;-71
2023/02/16 13:31:23;;;;;;;61.33;55.20;;;9.40;99.90;;;;;;4976527;28;20472;-71
2023/02/16 13:34:11;;;;;;;60.20;54.27;;;9.40;99.90;;;;;;4994041;28;20654;-71
2023/02/16 13:37:08;;;;;;;60.53;54.27;;;9.40;99.90;;;;;;4976597;28;20477;-71
2023/02/16 13:39:56;;;;;;;59.73;53.30;;;9.40;99.90;;;;;;4975717;28;20489;-71
2023/02/16 13:42:53;;;;;;;59.70;53.50;;;9.30;99.90;;;;;;4976544;28;20448;-71
2023/02/16 13:45:25;;;;;;;63.00;56.53;;;9.30;99.90;;;;;;4976392;28;20557;-71